Time;durP1;ratioP1;P1;durP2;ratioP2;P2;SDS_P1;SDS_P2;PMS_P1;PMS_P2;Temp;Humidity;BMP_temperature;BMP_pressure;BME280_temperature;BME280_humidity;BME280_pressure;Samples;Min_cycle;Max_cycle;Signal;HPM_P1;HPM_P2
2022/11/24 00:00:42;;;;;;;;;;;6.40;99.90;;;5.51;100.00;94918.94;10511173;28;3054;-72
2022/11/24 00:05:45;;;;;;;;;;;6.50;99.90;;;5.49;100.00;94914.94;10513040;28;3417;-72
2022/11/24 00:10:52;;;;;;;;;;;6.40;99.90;;;5.51;100.00;94913.63;10513742;28;3138;-72
2022/11/24 00:15:55;;;;;;;;;;;6.50;99.90;;;5.51;100.00;94936.81;10508207;28;3006;-73
2022/11/24 00:20:58;;;;;;;;;;;6.50;99.90;;;5.39;100.00;94932.50;10514766;28;3065;-73
2022/11/24 00:26:01;;;;;;;;;;;6.40;99.90;;;5.26;100.00;94948.16;10502868;28;2991;-72
2022/11/24 00:31:09;;;;;;;;;;;6.40;99.90;;;5.26;100.00;94948.97;10514051;28;3053;-72
2022/11/24 00:36:18;;;;;;;;;;;6.30;99.90;;;5.37;100.00;94947.97;10515413;28;3005;-72
2022/11/24 00:41:21;;;;;;;;;;;6.40;99.90;;;5.45;100.00;94956.50;10517221;28;3212;-72
2022/11/24 00:46:23;;;;;;;;;;;6.40;99.90;;;5.32;100.00;94968.44;10516642;28;2984;-71
2022/11/24 00:51:26;;;;;;;;;;;6.40;99.90;;;5.36;100.00;94970.34;10507357;28;2958;-72
2022/11/24 00:56:29;;;;;;;;;;;6.40;99.90;;;5.48;100.00;94980.00;10516650;28;3051;-73
2022/11/24 01:01:32;;;;;;;;;;;6.40;99.90;;;5.47;100.00;94997.03;10519535;28;3049;-73
2022/11/24 01:06:41;;;;;;;;;;;6.50;99.90;;;5.55;100.00;95004.53;10506373;28;3042;-73
2022/11/24 01:12:02;;;;;;;;;;;6.50;99.90;;;5.38;100.00;95021.50;10508127;28;3102;-73
2022/11/24 01:17:05;;;;;;;;;;;6.50;99.90;;;5.31;100.00;95028.94;10510282;28;3102;-73
2022/11/24 01:22:08;;;;;;;;;;;6.30;99.90;;;5.29;100.00;95036.41;10511039;28;3004;-73
2022/11/24 01:27:11;;;;;;;;;;;6.30;99.90;;;5.16;100.00;95042.19;10516263;28;3034;-73
2022/11/24 01:32:13;;;;;;;;;;;6.30;99.90;;;5.19;100.00;95043.53;10515479;28;3066;-72
2022/11/24 01:37:16;;;;;;;;;;;6.10;99.90;;;4.99;100.00;95049.53;10515456;28;3109;-74
2022/11/24 01:42:22;;;;;;;;;;;6.10;99.90;;;5.03;100.00;95050.63;10514130;28;2997;-74
2022/11/24 01:47:24;;;;;;;;;;;6.00;99.90;;;5.08;100.00;95059.44;10515429;28;3021;-73
2022/11/24 01:52:37;;;;;;;;;;;6.20;99.90;;;5.07;100.00;95071.16;10499256;28;2997;-72
2022/11/24 01:57:40;;;;;;;;;;;6.10;99.90;;;5.09;100.00;95081.53;10530362;28;3363;-73
2022/11/24 02:02:42;;;;;;;;;;;6.10;99.90;;;5.14;100.00;95078.91;10530281;28;3150;-72
2022/11/24 02:07:45;;;;;;;;;;;6.20;99.90;;;5.19;100.00;95081.63;10522765;28;3083;-72
2022/11/24 02:12:48;;;;;;;;;;;6.20;99.90;;;5.10;100.00;95088.50;10515241;28;3166;-72
2022/11/24 02:17:50;;;;;;;;;;;6.10;99.90;;;5.00;100.00;95093.75;10505866;28;3460;-73
2022/11/24 02:22:53;;;;;;;;;;;6.00;99.90;;;4.96;100.00;95108.63;10518154;28;3061;-73
2022/11/24 02:27:55;;;;;;;;;;;6.10;99.90;;;4.96;100.00;95108.63;10511858;28;3096;-73
2022/11/24 02:32:58;;;;;;;;;;;6.00;99.90;;;4.91;100.00;95125.38;10516073;28;3000;-73
2022/11/24 02:38:01;;;;;;;;;;;5.90;99.90;;;4.86;100.00;95126.13;10510487;28;3296;-72
2022/11/24 02:43:03;;;;;;;;;;;5.90;99.90;;;4.85;100.00;95129.84;10504060;28;3098;-74
2022/11/24 02:48:06;;;;;;;;;;;5.90;99.90;;;5.02;100.00;95143.03;10493763;28;3116;-74
2022/11/24 02:53:08;;;;;;;;;;;6.00;99.90;;;5.03;100.00;95144.66;10491590;28;3013;-74
2022/11/24 02:58:14;;;;;;;;;;;6.00;99.90;;;5.08;100.00;95149.22;10502786;28;3043;-74
2022/11/24 03:03:17;;;;;;;;;;;6.00;99.90;;;5.17;100.00;95144.22;10508371;28;3008;-73
2022/11/24 03:08:20;;;;;;;;;;;6.10;99.90;;;5.21;100.00;95148.78;10509790;28;3049;-73
2022/11/24 03:13:22;;;;;;;;;;;6.20;99.90;;;5.23;100.00;95157.34;10516957;28;3023;-74
2022/11/24 03:18:25;;;;;;;;;;;6.10;99.90;;;5.25;100.00;95157.88;10505653;28;3426;-72
2022/11/24 03:23:27;;;;;;;;;;;6.20;99.90;;;5.27;100.00;95169.06;10504457;28;3053;-73
2022/11/24 03:28:32;;;;;;;;;;;6.30;99.90;;;5.32;100.00;95170.97;10518432;28;2975;-72
2022/11/24 03:33:35;;;;;;;;;;;6.20;99.90;;;5.25;100.00;95171.19;10511860;28;3038;-72
2022/11/24 03:38:38;;;;;;;;;;;6.30;99.90;;;5.24;100.00;95180.25;10513415;28;3117;-73
2022/11/24 03:43:44;;;;;;;;;;;6.20;99.90;;;5.30;100.00;95189.91;10498559;28;2958;-74
2022/11/24 03:48:47;;;;;;;;;;;6.20;99.90;;;5.32;100.00;95187.78;10506359;28;2975;-72
2022/11/24 03:53:49;;;;;;;;;;;6.30;99.90;;;5.26;100.00;95194.13;10508971;28;3184;-73
2022/11/24 03:58:52;;;;;;;;;;;6.30;99.90;;;5.31;100.00;95183.50;10516824;28;3037;-73
2022/11/24 04:03:55;;;;;;;;;;;6.30;99.90;;;5.31;100.00;95196.03;10508363;28;3006;-73
2022/11/24 04:08:58;;;;;;;;;;;6.30;99.90;;;5.34;100.00;95195.50;10498225;28;3053;-74
2022/11/24 04:14:00;;;;;;;;;;;6.20;99.90;;;5.29;100.00;95204.28;10500526;28;3112;-73
2022/11/24 04:19:03;;;;;;;;;;;6.30;99.90;;;5.41;100.00;95202.25;10502716;28;3006;-73
2022/11/24 04:24:06;;;;;;;;;;;6.30;99.90;;;5.39;100.00;95199.03;10511520;28;2994;-73
2022/11/24 04:29:08;;;;;;;;;;;6.30;99.90;;;5.35;100.00;95213.94;10513759;28;3003;-73
2022/11/24 04:34:11;;;;;;;;;;;6.30;99.90;;;5.37;100.00;95222.47;10510572;28;3125;-72
2022/11/24 04:39:14;;;;;;;;;;;6.30;99.90;;;5.37;100.00;95222.47;10520836;28;2975;-73
2022/11/24 04:44:28;;;;;;;;;;;6.30;99.90;;;5.36;100.00;95220.06;10505325;28;2982;-72
2022/11/24 04:49:31;;;;;;;;;;;6.30;99.90;;;5.40;100.00;95226.47;10506079;28;3009;-73
2022/11/24 04:54:34;;;;;;;;;;;6.40;99.90;;;5.43;100.00;95226.78;10505921;28;3037;-77
2022/11/24 04:59:37;;;;;;;;;;;6.40;99.90;;;5.49;100.00;95235.63;10512084;28;3060;-74
2022/11/24 05:04:40;;;;;;;;;;;6.50;99.90;;;5.49;100.00;95245.50;10513633;28;3008;-73
2022/11/24 05:15:01;;;;;;;;;;;6.50;99.90;;;5.58;100.00;95258.09;10513390;28;3126;-74
2022/11/24 05:20:04;;;;;;;;;;;6.60;99.90;;;5.59;100.00;95266.88;10508075;28;3023;-78
2022/11/24 05:25:06;;;;;;;;;;;6.60;99.90;;;5.53;100.00;95275.91;10505570;28;3065;-74
2022/11/24 05:30:09;;;;;;;;;;;6.50;99.90;;;5.35;100.00;95283.22;10509946;28;3160;-75
2022/11/24 05:35:13;;;;;;;;;;;6.40;99.90;;;5.35;100.00;95288.56;10502718;28;3098;-75
2022/11/24 05:40:15;;;;;;;;;;;6.40;99.90;;;5.42;100.00;95289.16;10509850;28;3057;-72
2022/11/24 05:45:20;;;;;;;;;;;6.40;99.90;;;5.43;100.00;95292.63;10518576;28;3015;-74
2022/11/24 05:50:22;;;;;;;;;;;6.40;99.90;;;5.50;100.00;95311.06;10515629;28;3112;-74
2022/11/24 05:55:25;;;;;;;;;;;6.40;99.90;;;5.55;100.00;95305.81;10521622;28;3105;-74
2022/11/24 06:00:28;;;;;;;;;;;6.50;99.90;;;5.61;100.00;95299.47;10518222;28;3053;-74
2022/11/24 06:05:30;;;;;;;;;;;6.50;99.90;;;5.62;100.00;95315.19;10511217;28;3046;-72
2022/11/24 06:10:33;;;;;;;;;;;6.60;99.90;;;5.67;100.00;95317.09;10515115;28;3343;-74
2022/11/24 06:15:36;;;;;;;;;;;6.70;99.90;;;5.71;100.00;95328.84;10513157;28;3192;-73
2022/11/24 06:20:39;;;;;;;;;;;6.70;99.90;;;5.74;100.00;95333.69;10513868;28;3022;-73
2022/11/24 06:25:41;;;;;;;;;;;6.70;99.90;;;5.74;100.00;95338.22;10500979;28;3128;-73
2022/11/24 06:30:51;;;;;;;;;;;6.70;99.90;;;5.74;100.00;95339.03;10516552;28;3034;-73
2022/11/24 06:35:54;;;;;;;;;;;6.70;99.90;;;5.77;100.00;95340.38;10504749;28;3038;-72
2022/11/24 06:40:56;;;;;;;;;;;6.80;99.90;;;5.81;100.00;95344.97;10519609;28;3022;-73
2022/11/24 06:45:59;;;;;;;;;;;6.80;99.90;;;5.88;100.00;95345.56;10510050;28;3159;-75
2022/11/24 06:51:02;;;;;;;;;;;6.80;99.90;;;5.93;100.00;95358.16;10522339;28;3094;-73
2022/11/24 06:56:07;;;;;;;;;;;6.90;99.90;;;5.90;100.00;95361.28;10522200;28;3036;-74
2022/11/24 07:01:17;;;;;;;;;;;6.90;99.90;;;5.94;100.00;95359.78;10518276;28;3181;-74
2022/11/24 07:06:21;;;;;;;;;;;6.90;99.90;;;6.03;100.00;95368.09;10505475;28;3077;-73
2022/11/24 07:11:24;;;;;;;;;;;7.00;99.90;;;5.99;100.00;95362.50;10521320;28;3163;-73
2022/11/24 07:16:26;;;;;;;;;;;6.90;99.90;;;6.11;100.00;95373.00;10521095;28;3082;-74
2022/11/24 07:21:30;;;;;;;;;;;6.90;99.90;;;6.19;100.00;95372.50;10521850;28;3223;-73
2022/11/24 07:26:36;;;;;;;;;;;7.10;99.90;;;6.25;100.00;95374.16;10518702;28;3051;-75
2022/11/24 07:31:38;;;;;;;;;;;7.10;99.90;;;6.16;100.00;95383.69;10523794;28;3037;-74
2022/11/24 07:36:41;;;;;;;;;;;7.10;99.90;;;5.87;100.00;95369.81;10527264;28;2983;-74
2022/11/24 07:41:48;;;;;;;;;;;7.00;99.90;;;5.70;100.00;95373.38;10514988;28;3028;-75
2022/11/24 07:46:50;;;;;;;;;;;6.80;99.90;;;5.66;100.00;95376.81;10520669;28;3047;-74
2022/11/24 07:51:53;;;;;;;;;;;6.80;99.90;;;5.65;100.00;95391.19;10516308;28;3104;-76
2022/11/24 07:56:56;;;;;;;;;;;6.70;99.90;;;5.76;100.00;95384.91;10523647;28;3053;-73
2022/11/24 08:01:58;;;;;;;;;;;6.70;99.90;;;5.85;100.00;95375.41;10512961;28;3085;-75
2022/11/24 08:07:01;;;;;;;;;;;6.80;99.90;;;5.87;100.00;95367.94;10512690;28;3030;-75
2022/11/24 08:12:04;;;;;;;;;;;6.90;99.90;;;5.94;100.00;95360.56;10515253;28;2779;-73
2022/11/24 08:17:07;;;;;;;;;;;6.90;99.90;;;6.00;100.00;95364.09;10512712;28;2809;-75
2022/11/24 08:22:09;;;;;;;;;;;7.00;99.90;;;6.11;100.00;95355.13;10502758;28;2833;-73
2022/11/24 08:27:12;;;;;;;;;;;6.90;99.90;;;6.36;100.00;95370.50;10507801;28;2870;-72
2022/11/24 08:32:15;;;;;;;;;;;7.10;99.90;;;6.67;100.00;95373.34;10522172;28;2796;-73
2022/11/24 08:37:25;;;;;;;;;;;7.40;99.90;;;6.77;100.00;95368.88;10502173;28;2784;-72
2022/11/24 08:42:27;;;;;;;;;;;7.60;99.90;;;6.89;100.00;95366.00;10511673;28;2826;-72
2022/11/24 08:47:30;;;;;;;;;;;7.70;99.90;;;6.99;100.00;95365.22;10511801;28;2980;-73
2022/11/24 08:52:33;;;;;;;;;;;7.80;99.90;;;7.18;100.00;95368.25;10518025;28;2721;-72
2022/11/24 08:57:36;;;;;;;;;;;7.90;99.90;;;7.32;100.00;95358.69;10511493;28;2814;-72
2022/11/24 09:02:38;;;;;;;;;;;8.00;99.90;;;7.31;100.00;95357.06;10520577;28;2770;-73
2022/11/24 09:07:41;;;;;;;;;;;8.10;99.90;;;7.52;100.00;95358.75;10509237;28;2739;-72
2022/11/24 09:12:44;;;;;;;;;;;8.30;99.90;;;7.87;100.00;95359.84;10509245;28;2713;-72
2022/11/24 09:17:47;;;;;;;;;;;8.50;99.90;;;8.04;100.00;95348.91;10522279;28;2796;-76
2022/11/24 09:22:59;;;;;;;;;;;8.80;99.90;;;8.08;100.00;95361.50;10518172;28;2771;-75
2022/11/24 09:28:02;;;;;;;;;;;8.90;99.90;;;7.91;100.00;95363.63;10514180;28;2878;-77
2022/11/24 09:33:05;;;;;;;;;;;8.80;99.90;;;8.07;100.00;95362.53;10505157;28;2716;-73
2022/11/24 09:38:08;;;;;;;;;;;8.80;99.90;;;8.24;100.00;95358.81;10519645;28;2738;-72
2022/11/24 09:43:11;;;;;;;;;;;9.00;99.90;;;8.29;100.00;95369.53;10515512;28;2786;-75
2022/11/24 09:48:14;;;;;;;;;;;9.00;99.90;;;8.27;100.00;95352.91;10514717;28;2728;-72
2022/11/24 09:53:16;;;;;;;;;;;9.00;99.90;;;8.34;100.00;95353.47;10518263;28;2856;-73
2022/11/24 09:58:19;;;;;;;;;;;9.20;99.90;;;8.23;100.00;95352.66;10519680;28;2700;-71
2022/11/24 10:03:22;;;;;;;;;;;9.20;99.90;;;8.16;100.00;95367.38;10525820;28;2761;-71
2022/11/24 10:08:25;;;;;;;;;;;9.10;99.90;;;8.26;100.00;95378.06;10526533;28;2788;-73
2022/11/24 10:13:27;;;;;;;;;;;9.00;99.90;;;8.43;100.00;95378.63;10534448;28;2816;-73
2022/11/24 10:18:30;;;;;;;;;;;9.20;99.90;;;8.39;100.00;95378.34;10518986;28;2714;-72
2022/11/24 10:23:34;;;;;;;;;;;9.30;99.90;;;8.04;100.00;95395.22;10525718;28;2777;-74
2022/11/24 10:28:42;;;;;;;;;;;9.10;99.90;;;7.64;100.00;95409.34;10514584;28;2714;-72
2022/11/24 10:33:44;;;;;;;;;;;8.80;99.90;;;7.36;100.00;95402.53;10517564;28;2788;-71
2022/11/24 10:38:47;;;;;;;;;;;8.40;99.90;;;7.08;100.00;95427.03;10516076;28;2790;-73
2022/11/24 10:43:50;;;;;;;;;;;8.20;99.90;;;6.52;100.00;95453.38;10519488;28;2722;-72
2022/11/24 10:48:52;;;;;;;;;;;7.70;99.90;;;6.03;100.00;95464.16;10516102;28;2768;-72
2022/11/24 10:53:55;;;;;;;;;;;7.10;99.90;;;5.82;100.00;95457.78;10528493;28;2701;-73
2022/11/24 10:59:01;;;;;;;;;;;6.90;99.90;;;5.73;100.00;95465.44;10521053;28;2834;-75
2022/11/24 11:04:04;;;;;;;;;;;6.70;99.90;;;5.89;100.00;95469.88;10517775;28;2890;-72
2022/11/24 11:09:07;;;;;;;;;;;6.70;99.90;;;6.12;100.00;95455.47;10511712;28;2755;-72
2022/11/24 11:14:19;;;;;;;;;;;6.90;99.90;;;6.34;100.00;95457.22;10521505;28;2690;-71
2022/11/24 11:19:22;;;;;;;;;;;7.10;99.90;;;6.41;100.00;95452.47;10517349;28;2756;-73
2022/11/24 11:24:45;;;;;;;;;;;7.20;99.90;;;6.23;100.00;95454.50;10517379;28;2764;-75
2022/11/24 11:29:47;;;;;;;;;;;7.10;99.90;;;6.22;100.00;95473.41;10523530;28;2772;-72
2022/11/24 11:35:10;;;;;;;;;;;7.10;99.90;;;6.11;100.00;95480.53;10506115;28;2765;-72
2022/11/24 11:40:13;;;;;;;;;;;7.10;99.90;;;6.27;100.00;95476.13;10513438;28;2785;-72
2022/11/24 11:45:16;;;;;;;;;;;7.20;99.90;;;6.40;100.00;95482.91;10527311;28;2717;-71
2022/11/24 11:50:19;;;;;;;;;;;7.30;99.90;;;6.31;100.00;95490.59;10504051;28;2972;-72
2022/11/24 11:55:22;;;;;;;;;;;7.20;99.90;;;6.14;100.00;95482.69;10517901;28;2766;-72
2022/11/24 12:00:24;;;;;;;;;;;7.20;99.90;;;6.17;100.00;95490.19;10517927;28;2794;-72
2022/11/24 12:05:28;;;;;;;;;;;7.00;99.90;;;6.23;100.00;95491.88;10529425;28;2764;-71
2022/11/24 12:10:32;;;;;;;;;;;7.10;99.90;;;6.15;100.00;95494.16;10538675;28;2717;-71
2022/11/24 12:15:35;;;;;;;;;;;7.00;99.90;;;6.31;100.00;95498.59;10520830;28;2761;-71
2022/11/24 12:20:38;;;;;;;;;;;7.10;99.90;;;6.59;100.00;95505.50;10535728;28;2777;-73
2022/11/24 12:25:41;;;;;;;;;;;7.20;99.90;;;6.83;100.00;95489.94;10534385;28;2789;-72
2022/11/24 12:30:43;;;;;;;;;;;7.50;99.90;;;6.93;100.00;95497.19;10521746;28;2796;-72
2022/11/24 12:35:47;;;;;;;;;;;7.70;99.90;;;6.76;100.00;95494.69;10527380;28;2959;-72
2022/11/24 12:40:49;;;;;;;;;;;7.60;99.90;;;6.77;100.00;95504.31;10523034;28;2713;-73
2022/11/24 12:45:52;;;;;;;;;;;7.60;99.90;;;7.21;100.00;95501.41;10519100;28;2781;-73
2022/11/24 12:50:55;;;;;;;;;;;7.70;99.90;;;7.45;100.00;95502.59;10508324;28;2722;-73
2022/11/24 12:55:57;;;;;;;;;;;8.10;99.90;;;7.62;100.00;95507.75;10524250;28;2778;-76
2022/11/24 13:01:00;;;;;;;;;;;8.30;99.90;;;7.69;100.00;95494.94;10516537;28;2891;-74
2022/11/24 13:06:03;;;;;;;;;;;8.40;99.90;;;7.59;100.00;95509.09;10515286;28;2777;-76
2022/11/24 13:11:05;;;;;;;;;;;8.50;99.90;;;7.18;100.00;95512.59;10517760;28;2788;-77
2022/11/24 13:16:08;;;;;;;;;;;8.20;99.90;;;6.67;100.00;95521.06;10510820;28;2753;-73
2022/11/24 13:21:31;;;;;;;;;;;7.90;99.90;;;6.56;100.00;95521.25;10518033;28;2804;-73
2022/11/24 13:26:34;;;;;;;;;;;7.70;99.90;;;6.61;100.00;95519.41;10509473;28;2694;-73
2022/11/24 13:31:42;;;;;;;;;;;7.50;99.90;;;6.64;100.00;95518.91;10516507;28;3087;-72
2022/11/24 13:36:45;;;;;;;;;;;7.50;99.90;;;6.71;100.00;95535.53;10515978;28;2807;-77
2022/11/24 13:41:48;;;;;;;;;;;7.50;99.90;;;6.67;100.00;95534.41;10523850;28;2720;-73
2022/11/24 13:46:50;;;;;;;;;;;7.60;99.90;;;6.73;100.00;95533.41;10511939;28;2787;-73
2022/11/24 13:51:53;;;;;;;;;;;7.60;99.90;;;6.81;100.00;95533.97;10511659;28;3075;-73
2022/11/24 13:56:56;;;;;;;;;;;7.60;99.90;;;6.86;100.00;95548.19;10534736;28;2860;-72
2022/11/24 14:01:59;;;;;;;;;;;7.70;99.90;;;6.89;100.00;95545.03;10526667;28;2872;-74
2022/11/24 14:07:02;;;;;;;;;;;7.80;99.90;;;7.00;100.00;95549.38;10548148;27;2799;-74
2022/11/24 14:12:25;;;;;;;;;;;7.80;99.90;;;6.89;100.00;95547.69;10509135;28;2713;-74
2022/11/24 14:17:28;;;;;;;;;;;7.80;99.90;;;6.79;100.00;95542.25;10504605;28;2885;-73
2022/11/24 14:22:30;;;;;;;;;;;7.80;99.90;;;6.81;100.00;95534.81;10513128;28;2902;-72
2022/11/24 14:27:33;;;;;;;;;;;7.70;99.90;;;6.87;100.00;95535.63;10515200;28;2768;-72
2022/11/24 14:32:36;;;;;;;;;;;7.70;99.90;;;6.91;100.00;95550.91;10508125;28;2756;-74
2022/11/24 14:37:39;;;;;;;;;;;7.90;99.90;;;6.69;100.00;95559.03;10506265;28;2707;-74
2022/11/24 14:42:43;;;;;;;;;;;7.70;99.90;;;6.59;100.00;95574.94;10515093;28;2800;-75
2022/11/24 14:47:45;;;;;;;;;;;7.60;99.90;;;6.36;100.00;95581.41;10513835;28;3110;-72
2022/11/24 14:52:48;;;;;;;;;;;7.40;99.90;;;5.62;100.00;95607.69;10514063;28;2730;-71
2022/11/24 14:57:50;;;;;;;;;;;6.90;99.90;;;4.92;100.00;95618.91;10516382;28;2783;-71
2022/11/24 15:02:59;;;;;;;;;;;6.10;99.90;;;4.71;100.00;95612.41;10511193;28;2833;-73
2022/11/24 15:08:02;;;;;;;;;;;5.70;99.90;;;4.65;100.00;95622.19;10506121;28;2993;-73
2022/11/24 15:13:05;;;;;;;;;;;5.60;99.90;;;4.50;100.00;95621.91;10501872;28;2687;-74
2022/11/24 15:18:07;;;;;;;;;;;5.50;99.90;;;4.40;100.00;95625.22;10507083;28;2670;-72
2022/11/24 15:23:10;;;;;;;;;;;5.50;99.90;;;4.58;100.00;95624.19;10509568;28;2720;-72
2022/11/24 15:28:13;;;;;;;;;;;5.50;99.90;;;4.61;100.00;95629.03;10498470;28;2738;-73
2022/11/24 15:33:18;;;;;;;;;;;5.50;99.90;;;4.43;100.00;95621.25;10509513;28;2758;-72
2022/11/24 15:38:20;;;;;;;;;;;5.60;99.90;;;4.28;100.00;95630.56;10498010;28;2752;-73
2022/11/24 15:43:23;;;;;;;;;;;5.40;99.90;;;4.14;100.00;95633.75;10512887;28;2776;-73
2022/11/24 15:48:26;;;;;;;;;;;5.40;99.90;;;4.06;100.00;95634.91;10503252;28;2887;-74
2022/11/24 15:53:29;;;;;;;;;;;5.20;99.90;;;4.01;100.00;95640.16;10503592;28;2660;-73
2022/11/24 15:58:32;;;;;;;;;;;5.20;99.90;;;4.00;100.00;95647.28;10518025;28;2781;-73
2022/11/24 16:03:35;;;;;;;;;;;5.10;99.90;;;4.20;100.00;95654.06;10512229;28;2729;-72
2022/11/24 16:08:49;;;;;;;;;;;5.10;99.90;;;4.36;100.00;95655.19;10495360;28;2765;-74
2022/11/24 16:13:52;;;;;;;;;;;5.30;99.90;;;4.45;100.00;95662.53;10515354;28;2789;-74
2022/11/24 16:18:56;;;;;;;;;;;5.40;99.90;;;4.59;100.00;95663.09;10502401;28;2753;-72
2022/11/24 16:23:59;;;;;;;;;;;5.50;99.90;;;4.69;100.00;95660.59;10511528;28;3111;-74
2022/11/24 16:29:02;;;;;;;;;;;5.70;99.90;;;4.61;100.00;95663.66;10510055;28;2792;-73
2022/11/24 16:34:04;;;;;;;;;;;5.60;99.90;;;4.56;100.00;95663.56;10485365;28;2895;-73
2022/11/24 16:39:07;;;;;;;;;;;5.70;99.90;;;4.72;100.00;95672.63;10509724;28;2791;-72
2022/11/24 16:44:10;;;;;;;;;;;5.70;99.90;;;4.81;100.00;95677.31;10508545;28;2678;-72
2022/11/24 16:49:13;;;;;;;;;;;5.70;99.90;;;5.04;100.00;95681.72;10510910;28;2787;-70
2022/11/24 16:54:16;;;;;;;;;;;5.90;99.90;;;4.97;100.00;95686.41;10515765;28;2725;-71
2022/11/24 16:59:18;;;;;;;;;;;5.90;99.90;;;5.05;100.00;95695.84;10514060;28;2692;-72
2022/11/24 17:04:21;;;;;;;;;;;5.90;99.90;;;4.95;100.00;95693.00;10504348;28;2830;-71
2022/11/24 17:09:24;;;;;;;;;;;6.00;99.90;;;4.66;100.00;95690.38;10509162;28;2882;-70
2022/11/24 17:14:26;;;;;;;;;;;5.80;99.90;;;4.54;100.00;95686.94;10498696;28;2828;-69
2022/11/24 17:19:30;;;;;;;;;;;5.60;99.90;;;4.51;100.00;95682.09;10513918;28;2781;-72
2022/11/24 17:24:34;;;;;;;;;;;5.50;99.90;;;4.56;100.00;95684.84;10485194;28;2787;-70
2022/11/24 17:29:37;;;;;;;;;;;5.60;99.90;;;4.59;100.00;95689.72;10508314;28;2717;-71
2022/11/24 17:34:40;;;;;;;;;;;5.60;99.90;;;4.46;100.00;95680.16;10498611;28;2796;-73
2022/11/24 17:39:43;;;;;;;;;;;5.50;99.90;;;4.31;100.00;95682.50;10517042;28;2744;-74
2022/11/24 17:45:05;;;;;;;;;;;5.50;99.90;;;4.34;100.00;95690.84;10512028;28;2714;-72
2022/11/24 17:50:12;;;;;;;;;;;5.30;99.90;;;4.28;100.00;95694.44;10521422;28;2910;-76
2022/11/24 17:55:15;;;;;;;;;;;5.30;99.90;;;4.22;100.00;95695.38;10515951;28;2745;-74
2022/11/24 18:00:17;;;;;;;;;;;5.30;99.90;;;4.21;100.00;95693.75;10515216;28;3049;-75
2022/11/24 18:05:20;;;;;;;;;;;5.20;99.90;;;4.23;100.00;95685.53;10504431;28;2713;-76
2022/11/24 18:10:23;;;;;;;;;;;5.30;99.90;;;4.10;100.00;95691.94;10494887;28;2749;-75
2022/11/24 18:15:25;;;;;;;;;;;5.20;99.90;;;3.95;100.00;95688.97;10515921;28;2757;-76
2022/11/24 18:20:28;;;;;;;;;;;5.10;99.90;;;3.81;100.00;95696.34;10506378;28;2942;-73
2022/11/24 18:25:32;;;;;;;;;;;5.00;99.90;;;3.75;100.00;95690.16;10508514;28;2668;-76
2022/11/24 18:30:34;;;;;;;;;;;4.90;99.90;;;3.63;100.00;95694.66;10517744;28;2801;-73
2022/11/24 18:35:38;;;;;;;;;;;4.80;99.90;;;3.52;100.00;95698.13;10516795;28;2777;-74
2022/11/24 18:40:41;;;;;;;;;;;4.80;99.90;;;3.40;100.00;95698.09;10501132;28;2982;-72
2022/11/24 18:45:54;;;;;;;;;;;4.70;99.90;;;3.38;100.00;95689.56;10508473;28;2709;-75
2022/11/24 18:50:56;;;;;;;;;;;4.60;99.90;;;3.23;100.00;95697.97;10532751;28;2760;-74
2022/11/24 18:55:59;;;;;;;;;;;4.50;99.90;;;3.21;100.00;95699.25;10537209;28;2701;-73
2022/11/24 19:01:03;;;;;;;;;;;4.40;99.90;;;3.28;100.00;95689.31;10529246;28;2712;-74
2022/11/24 19:06:05;;;;;;;;;;;4.30;99.90;;;3.24;100.00;95686.31;10531813;28;2750;-73
2022/11/24 19:11:08;;;;;;;;;;;4.30;99.90;;;3.18;100.00;95684.59;10525838;28;2757;-72
2022/11/24 19:16:11;;;;;;;;;;;4.40;99.90;;;3.08;100.00;95689.63;10537484;28;2877;-74
2022/11/24 19:21:17;;;;;;;;;;;4.30;99.90;;;3.08;100.00;95683.53;10514260;28;2776;-74
2022/11/24 19:26:20;;;;;;;;;;;4.20;99.90;;;3.03;100.00;95686.84;10515302;28;2831;-74
2022/11/24 19:31:24;;;;;;;;;;;4.30;99.90;;;2.96;100.00;95683.50;10518513;28;2737;-73
2022/11/24 19:36:27;;;;;;;;;;;4.20;99.90;;;2.91;100.00;95684.16;10513905;28;2762;-73
2022/11/24 19:41:29;;;;;;;;;;;4.10;99.90;;;2.90;100.00;95677.25;10526716;28;2749;-72
2022/11/24 19:46:32;;;;;;;;;;;4.00;99.90;;;2.83;100.00;95691.66;10499179;28;2773;-73
2022/11/24 19:51:35;;;;;;;;;;;4.10;99.90;;;2.76;100.00;95696.25;10508667;28;2769;-73
2022/11/24 19:56:37;;;;;;;;;;;4.00;99.90;;;2.64;100.00;95694.38;10520527;28;2897;-73
2022/11/24 20:01:41;;;;;;;;;;;3.90;99.90;;;2.54;100.00;95699.38;10526828;28;2764;-73
2022/11/24 20:06:44;;;;;;;;;;;3.80;99.90;;;2.54;100.00;95699.38;10526547;28;2782;-73
2022/11/24 20:11:47;;;;;;;;;;;3.80;99.90;;;2.69;100.00;95699.00;10522154;28;2714;-72
2022/11/24 20:16:50;;;;;;;;;;;3.80;99.90;;;2.65;100.00;95706.59;10534824;28;2790;-73
2022/11/24 20:21:53;;;;;;;;;;;3.80;99.90;;;2.59;100.00;95704.03;10528112;28;2753;-73
2022/11/24 20:26:56;;;;;;;;;;;3.80;99.90;;;2.52;100.00;95706.78;10515809;28;2728;-72
2022/11/24 20:31:59;;;;;;;;;;;3.70;99.90;;;2.48;100.00;95699.47;10538503;28;2690;-76
2022/11/24 20:37:02;;;;;;;;;;;3.60;99.90;;;2.32;100.00;95699.09;10529649;28;2825;-74
2022/11/24 20:42:05;;;;;;;;;;;3.60;99.90;;;2.27;100.00;95701.59;10521887;28;2792;-76
2022/11/24 20:47:07;;;;;;;;;;;3.50;99.90;;;2.29;100.00;95702.19;10522753;28;2812;-77
2022/11/24 20:52:10;;;;;;;;;;;3.50;99.90;;;2.14;100.00;95697.25;10531734;28;2737;-76
2022/11/24 20:57:13;;;;;;;;;;;3.40;99.90;;;2.13;100.00;95692.97;10528715;28;3181;-72
2022/11/24 21:02:15;;;;;;;;;;;3.30;99.90;;;2.05;100.00;95701.25;10533460;28;2726;-73
2022/11/24 21:07:18;;;;;;;;;;;3.30;99.90;;;2.04;100.00;95691.69;10532714;28;2709;-74
2022/11/24 21:12:21;;;;;;;;;;;3.20;99.90;;;2.01;100.00;95684.16;10534886;27;2739;-75
2022/11/24 21:17:24;;;;;;;;;;;3.20;99.90;;;1.96;100.00;95684.00;10525542;28;2852;-77
2022/11/24 21:22:26;;;;;;;;;;;3.20;99.90;;;1.87;100.00;95688.00;10523948;28;2785;-77
2022/11/24 21:27:30;;;;;;;;;;;;;;;1.82;100.00;95682.53;10510937;28;2756;-75
2022/11/24 21:32:33;;;;;;;;;;;;;;;1.75;100.00;95679.16;10512177;28;2795;-75
2022/11/24 21:37:36;;;;;;;;;;;;;;;1.81;100.00;95683.56;10517327;28;2774;-78
2022/11/24 21:42:40;;;;;;;;;;;;;;;1.80;100.00;95680.13;10523016;28;2740;-74
2022/11/24 21:47:45;;;;;;;;;;;2.90;99.90;;;1.85;100.00;95682.13;10502953;28;2721;-75
2022/11/24 21:52:48;;;;;;;;;;;3.00;99.90;;;1.84;100.00;95678.63;10522775;28;2867;-76
2022/11/24 21:57:50;;;;;;;;;;;3.00;99.90;;;1.91;100.00;95681.22;10523499;28;2874;-73
2022/11/24 22:02:53;;;;;;;;;;;3.10;99.90;;;1.98;100.00;95676.66;10504292;28;2858;-73
2022/11/24 22:07:56;;;;;;;;;;;3.10;99.90;;;1.95;100.00;95690.34;10497060;28;2752;-73
2022/11/24 22:12:59;;;;;;;;;;;3.20;99.90;;;1.82;100.00;95690.50;10486695;28;2752;-74
2022/11/24 22:18:02;;;;;;;;;;;3.10;99.90;;;1.94;100.00;95688.72;10490641;28;3115;-73
2022/11/24 22:23:05;;;;;;;;;;;3.10;99.90;;;1.89;100.00;95696.53;10484927;28;2887;-75
2022/11/24 22:28:07;;;;;;;;;;;3.00;99.90;;;1.80;100.00;95693.38;10486635;28;2732;-73
2022/11/24 22:33:10;;;;;;;;;;;3.00;99.90;;;1.78;100.00;95678.69;10468434;28;2772;-75
2022/11/24 22:38:13;;;;;;;;;;;3.00;99.90;;;1.84;100.00;95675.16;10469079;28;3188;-71
2022/11/24 22:43:16;;;;;;;;;;;3.00;99.90;;;1.82;100.00;95678.03;10491629;28;2816;-70
2022/11/24 22:48:24;;;;;;;;;;;3.00;99.90;;;1.75;100.00;95679.97;10485174;28;2763;-72
2022/11/24 22:53:27;;;;;;;;;;;3.00;99.90;;;1.82;100.00;95680.69;10490927;28;2862;-72
2022/11/24 22:58:29;;;;;;;;;;;3.00;99.90;;;1.84;100.00;95683.13;10490816;28;2880;-71
2022/11/24 23:03:32;;;;;;;;;;;2.90;99.90;;;1.77;100.00;95682.38;10492857;28;2635;-74
2022/11/24 23:08:35;;;;;;;;;;;2.90;99.90;;;1.74;100.00;95674.88;10522379;28;2737;-72
2022/11/24 23:13:37;;;;;;;;;;;3.00;99.90;;;1.75;100.00;95679.97;10524870;28;2770;-72
2022/11/24 23:18:41;;;;;;;;;;;3.00;99.90;;;1.68;100.00;95678.41;10506191;28;2702;-75
2022/11/24 23:23:44;;;;;;;;;;;2.90;99.90;;;1.59;100.00;95686.66;10534318;28;2772;-73
2022/11/24 23:28:47;;;;;;;;;;;2.80;99.90;;;1.43;100.00;95681.91;10526820;28;2716;-70
2022/11/24 23:33:50;;;;;;;;;;;;;;;1.54;100.00;95675.91;10523454;28;2852;-71
2022/11/24 23:38:53;;;;;;;;;;;;;;;1.54;100.00;95672.44;10531823;28;2760;-72